sensor_id;sensor_type;location;lat;lon;timestamp;pressure;altitude;pressure_sealevel;temperature;humidity
76060;BME280;64759;52.220;5.170;2023-04-06T00:01:41;101753.19;;;6.39;52.47
76060;BME280;64759;52.220;5.170;2023-04-06T00:04:07;101756.69;;;6.38;51.93
76060;BME280;64759;52.220;5.170;2023-04-06T00:06:33;101751.81;;;6.33;52.02
76060;BME280;64759;52.220;5.170;2023-04-06T00:09:00;101751.81;;;6.33;51.77
76060;BME280;64759;52.220;5.170;2023-04-06T00:11:26;101744.47;;;6.27;52.31
76060;BME280;64759;52.220;5.170;2023-04-06T00:13:51;101747.41;;;6.21;52.11
76060;BME280;64759;52.220;5.170;2023-04-06T00:16:17;101741.44;;;6.21;52.31
76060;BME280;64759;52.220;5.170;2023-04-06T00:18:43;101747.22;;;6.24;52.12
76060;BME280;64759;52.220;5.170;2023-04-06T00:21:11;101740.72;;;6.19;51.88
76060;BME280;64759;52.220;5.170;2023-04-06T00:23:38;101739.59;;;6.23;52.14
76060;BME280;64759;52.220;5.170;2023-04-06T00:26:03;101739.41;;;6.26;51.69
76060;BME280;64759;52.220;5.170;2023-04-06T00:28:28;101734.19;;;6.13;52.04
76060;BME280;64759;52.220;5.170;2023-04-06T00:30:55;101735.84;;;6.14;51.69
76060;BME280;64759;52.220;5.170;2023-04-06T00:33:22;101725.56;;;6.14;51.60
76060;BME280;64759;52.220;5.170;2023-04-06T00:35:48;101730.59;;;6.16;52.00
76060;BME280;64759;52.220;5.170;2023-04-06T00:38:14;101732.72;;;6.09;51.43
76060;BME280;64759;52.220;5.170;2023-04-06T00:40:40;101724.34;;;6.06;52.14
76060;BME280;64759;52.220;5.170;2023-04-06T00:43:06;101720.47;;;5.99;51.96
76060;BME280;64759;52.220;5.170;2023-04-06T00:45:32;101719.81;;;5.95;52.13
76060;BME280;64759;52.220;5.170;2023-04-06T00:47:58;101706.22;;;5.93;52.41
76060;BME280;64759;52.220;5.170;2023-04-06T00:50:24;101706.16;;;5.95;52.43
76060;BME280;64759;52.220;5.170;2023-04-06T00:52:50;101703.59;;;5.95;52.30
76060;BME280;64759;52.220;5.170;2023-04-06T00:55:19;101703.59;;;5.95;52.66
76060;BME280;64759;52.220;5.170;2023-04-06T00:57:45;101705.13;;;5.97;52.05
76060;BME280;64759;52.220;5.170;2023-04-06T01:00:11;101701.47;;;6.01;52.00
76060;BME280;64759;52.220;5.170;2023-04-06T01:02:38;101691.75;;;6.06;51.57
76060;BME280;64759;52.220;5.170;2023-04-06T01:05:05;101689.06;;;6.08;51.52
76060;BME280;64759;52.220;5.170;2023-04-06T01:07:46;101692.81;;;6.02;51.58
76060;BME280;64759;52.220;5.170;2023-04-06T01:10:23;101690.06;;;6.05;51.86
76060;BME280;64759;52.220;5.170;2023-04-06T01:12:49;101681.34;;;6.08;52.14
76060;BME280;64759;52.220;5.170;2023-04-06T01:15:23;101684.75;;;6.08;51.53
76060;BME280;64759;52.220;5.170;2023-04-06T01:17:51;101672.63;;;6.10;51.53
76060;BME280;64759;52.220;5.170;2023-04-06T01:20:16;101675.78;;;6.01;51.70
76060;BME280;64759;52.220;5.170;2023-04-06T01:22:42;101673.66;;;6.08;51.63
76060;BME280;64759;52.220;5.170;2023-04-06T01:25:09;101677.31;;;5.89;51.80
76060;BME280;64759;52.220;5.170;2023-04-06T01:27:55;101669.06;;;5.99;51.68
76060;BME280;64759;52.220;5.170;2023-04-06T01:30:23;101663.78;;;5.72;51.93
76060;BME280;64759;52.220;5.170;2023-04-06T01:32:59;101667.63;;;5.79;52.26
76060;BME280;64759;52.220;5.170;2023-04-06T01:35:44;101660.94;;;5.76;51.94
76060;BME280;64759;52.220;5.170;2023-04-06T01:38:14;101659.91;;;5.65;51.69
76060;BME280;64759;52.220;5.170;2023-04-06T01:40:39;101652.84;;;5.68;52.18
76060;BME280;64759;52.220;5.170;2023-04-06T01:43:05;101659.25;;;5.61;51.65
76060;BME280;64759;52.220;5.170;2023-04-06T01:45:38;101657.91;;;5.70;52.14
76060;BME280;64759;52.220;5.170;2023-04-06T01:48:13;101649.44;;;5.68;52.54
76060;BME280;64759;52.220;5.170;2023-04-06T01:50:38;101651.28;;;5.80;52.41
76060;BME280;64759;52.220;5.170;2023-04-06T01:53:05;101646.53;;;5.74;51.99
76060;BME280;64759;52.220;5.170;2023-04-06T01:55:32;101644.97;;;5.71;52.21
76060;BME280;64759;52.220;5.170;2023-04-06T01:58:14;101646.88;;;5.68;51.61
76060;BME280;64759;52.220;5.170;2023-04-06T02:00:40;101636.03;;;5.63;51.75
76060;BME280;64759;52.220;5.170;2023-04-06T02:03:06;101639.06;;;5.55;51.36
76060;BME280;64759;52.220;5.170;2023-04-06T02:05:32;101628.03;;;5.53;52.14
76060;BME280;64759;52.220;5.170;2023-04-06T02:08:07;101632.53;;;5.50;51.48
76060;BME280;64759;52.220;5.170;2023-04-06T02:10:35;101628.69;;;5.57;51.80
76060;BME280;64759;52.220;5.170;2023-04-06T02:13:08;101623.09;;;5.50;51.16
76060;BME280;64759;52.220;5.170;2023-04-06T02:15:34;101617.31;;;5.47;51.30
76060;BME280;64759;52.220;5.170;2023-04-06T02:18:00;101619.31;;;5.56;51.37
76060;BME280;64759;52.220;5.170;2023-04-06T02:20:25;101619.25;;;5.57;51.53
76060;BME280;64759;52.220;5.170;2023-04-06T02:22:51;101607.22;;;5.58;51.40
76060;BME280;64759;52.220;5.170;2023-04-06T02:25:16;101609.97;;;5.55;51.36
76060;BME280;64759;52.220;5.170;2023-04-06T02:27:42;101610.81;;;5.55;51.14
76060;BME280;64759;52.220;5.170;2023-04-06T02:30:07;101602.06;;;5.58;51.30
76060;BME280;64759;52.220;5.170;2023-04-06T02:32:34;101606.03;;;5.63;51.95
76060;BME280;64759;52.220;5.170;2023-04-06T02:35:01;101605.75;;;5.68;51.29
76060;BME280;64759;52.220;5.170;2023-04-06T02:37:28;101601.16;;;5.59;51.15
76060;BME280;64759;52.220;5.170;2023-04-06T02:39:53;101596.25;;;5.70;51.07
76060;BME280;64759;52.220;5.170;2023-04-06T02:42:19;101598.03;;;5.68;50.80
76060;BME280;64759;52.220;5.170;2023-04-06T02:44:47;101596.41;;;5.67;50.70
76060;BME280;64759;52.220;5.170;2023-04-06T02:47:13;101584.00;;;5.73;51.03
76060;BME280;64759;52.220;5.170;2023-04-06T02:49:43;101587.44;;;5.88;50.43
76060;BME280;64759;52.220;5.170;2023-04-06T02:52:08;101583.22;;;5.87;50.59
76060;BME280;64759;52.220;5.170;2023-04-06T02:54:35;101583.69;;;5.93;50.36
76060;BME280;64759;52.220;5.170;2023-04-06T02:57:02;101578.53;;;5.93;50.12
76060;BME280;64759;52.220;5.170;2023-04-06T02:59:38;101571.09;;;5.89;50.60
76060;BME280;64759;52.220;5.170;2023-04-06T03:02:13;101569.03;;;5.80;50.72
76060;BME280;64759;52.220;5.170;2023-04-06T03:04:39;101567.97;;;5.84;50.86
76060;BME280;64759;52.220;5.170;2023-04-06T03:07:13;101569.63;;;5.85;49.98
76060;BME280;64759;52.220;5.170;2023-04-06T03:09:38;101565.31;;;5.85;51.22
76060;BME280;64759;52.220;5.170;2023-04-06T03:12:04;101565.47;;;5.82;51.33
76060;BME280;64759;52.220;5.170;2023-04-06T03:14:35;101558.53;;;5.84;50.71
76060;BME280;64759;52.220;5.170;2023-04-06T03:17:02;101563.13;;;5.93;50.84
76060;BME280;64759;52.220;5.170;2023-04-06T03:19:28;101563.72;;;5.97;51.22
76060;BME280;64759;52.220;5.170;2023-04-06T03:21:57;101564.56;;;5.83;51.75
76060;BME280;64759;52.220;5.170;2023-04-06T03:24:24;101560.81;;;5.89;51.47
76060;BME280;64759;52.220;5.170;2023-04-06T03:26:49;101558.50;;;5.99;50.99
76060;BME280;64759;52.220;5.170;2023-04-06T03:29:15;101552.19;;;5.90;51.52
76060;BME280;64759;52.220;5.170;2023-04-06T03:31:40;101557.97;;;5.93;51.57
76060;BME280;64759;52.220;5.170;2023-04-06T03:34:28;101547.28;;;6.00;51.12
76060;BME280;64759;52.220;5.170;2023-04-06T03:36:54;101542.44;;;5.95;51.08
76060;BME280;64759;52.220;5.170;2023-04-06T03:39:20;101541.06;;;6.04;50.85
76060;BME280;64759;52.220;5.170;2023-04-06T03:41:45;101540.41;;;6.00;51.15
76060;BME280;64759;52.220;5.170;2023-04-06T03:44:27;101540.56;;;5.84;51.63
76060;BME280;64759;52.220;5.170;2023-04-06T03:46:52;101534.53;;;5.84;52.29
76060;BME280;64759;52.220;5.170;2023-04-06T03:49:20;101537.13;;;5.84;51.89
76060;BME280;64759;52.220;5.170;2023-04-06T03:51:49;101529.41;;;5.84;52.40
76060;BME280;64759;52.220;5.170;2023-04-06T03:54:14;101525.16;;;5.83;52.42
76060;BME280;64759;52.220;5.170;2023-04-06T03:56:39;101533.81;;;5.82;52.49
76060;BME280;64759;52.220;5.170;2023-04-06T03:59:05;101526.41;;;5.91;52.45
76060;BME280;64759;52.220;5.170;2023-04-06T04:01:31;101527.59;;;5.86;52.38
76060;BME280;64759;52.220;5.170;2023-04-06T04:03:56;101527.47;;;5.87;52.50
76060;BME280;64759;52.220;5.170;2023-04-06T04:06:21;101522.88;;;5.92;52.84
76060;BME280;64759;52.220;5.170;2023-04-06T04:08:47;101529.97;;;5.89;52.84
76060;BME280;64759;52.220;5.170;2023-04-06T04:11:14;101527.66;;;5.99;52.39
76060;BME280;64759;52.220;5.170;2023-04-06T04:13:41;101524.16;;;6.00;52.89
76060;BME280;64759;52.220;5.170;2023-04-06T04:16:07;101533.53;;;6.01;52.97
76060;BME280;64759;52.220;5.170;2023-04-06T04:18:34;101533.16;;;6.07;52.15
76060;BME280;64759;52.220;5.170;2023-04-06T04:20:59;101530.31;;;5.97;52.72
76060;BME280;64759;52.220;5.170;2023-04-06T04:23:25;101537.22;;;5.97;53.25
76060;BME280;64759;52.220;5.170;2023-04-06T04:25:51;101528.50;;;5.99;52.70
76060;BME280;64759;52.220;5.170;2023-04-06T04:28:17;101528.69;;;5.82;53.10
76060;BME280;64759;52.220;5.170;2023-04-06T04:30:43;101534.28;;;5.88;53.90
76060;BME280;64759;52.220;5.170;2023-04-06T04:33:10;101528.22;;;5.75;53.72
76060;BME280;64759;52.220;5.170;2023-04-06T04:35:36;101520.22;;;5.80;53.57
76060;BME280;64759;52.220;5.170;2023-04-06T04:38:02;101522.44;;;5.86;53.98
76060;BME280;64759;52.220;5.170;2023-04-06T04:40:29;101525.34;;;5.80;54.50
76060;BME280;64759;52.220;5.170;2023-04-06T04:43:03;101517.41;;;5.84;53.53
76060;BME280;64759;52.220;5.170;2023-04-06T04:45:32;101522.06;;;5.78;53.99
76060;BME280;64759;52.220;5.170;2023-04-06T04:48:04;101522.28;;;5.89;53.89
76060;BME280;64759;52.220;5.170;2023-04-06T04:50:39;101519.13;;;5.84;53.88
76060;BME280;64759;52.220;5.170;2023-04-06T04:53:04;101517.84;;;5.77;54.25
76060;BME280;64759;52.220;5.170;2023-04-06T04:55:32;101508.31;;;5.79;54.46
76060;BME280;64759;52.220;5.170;2023-04-06T04:57:59;101518.03;;;5.74;54.52
76060;BME280;64759;52.220;5.170;2023-04-06T05:00:39;101512.78;;;5.75;54.26
76060;BME280;64759;52.220;5.170;2023-04-06T05:03:04;101511.69;;;5.79;54.74
76060;BME280;64759;52.220;5.170;2023-04-06T05:05:34;101513.97;;;5.84;54.41
76060;BME280;64759;52.220;5.170;2023-04-06T05:08:00;101505.06;;;5.75;54.45
76060;BME280;64759;52.220;5.170;2023-04-06T05:10:40;101510.03;;;5.78;54.40
76060;BME280;64759;52.220;5.170;2023-04-06T05:13:06;101510.59;;;5.69;54.54
76060;BME280;64759;52.220;5.170;2023-04-06T05:15:32;101506.44;;;5.81;54.21
76060;BME280;64759;52.220;5.170;2023-04-06T05:18:07;101518.16;;;5.86;54.12
76060;BME280;64759;52.220;5.170;2023-04-06T05:20:35;101509.25;;;5.92;53.74
76060;BME280;64759;52.220;5.170;2023-04-06T05:23:00;101513.25;;;5.96;54.13
76060;BME280;64759;52.220;5.170;2023-04-06T05:25:27;101507.53;;;6.05;53.54
76060;BME280;64759;52.220;5.170;2023-04-06T05:27:56;101506.75;;;6.17;53.98
76060;BME280;64759;52.220;5.170;2023-04-06T05:30:42;101504.97;;;6.05;53.58
76060;BME280;64759;52.220;5.170;2023-04-06T05:33:10;101507.53;;;6.05;53.51
76060;BME280;64759;52.220;5.170;2023-04-06T05:35:48;101504.06;;;6.06;53.57
76060;BME280;64759;52.220;5.170;2023-04-06T05:38:13;101508.91;;;6.11;53.71
76060;BME280;64759;52.220;5.170;2023-04-06T05:40:39;101502.31;;;6.07;53.70
76060;BME280;64759;52.220;5.170;2023-04-06T05:43:08;101504.78;;;6.08;53.73
76060;BME280;64759;52.220;5.170;2023-04-06T05:45:36;101505.31;;;6.13;53.57
76060;BME280;64759;52.220;5.170;2023-04-06T05:48:03;101495.81;;;6.01;54.06
76060;BME280;64759;52.220;5.170;2023-04-06T05:50:29;101508.00;;;6.12;53.63
76060;BME280;64759;52.220;5.170;2023-04-06T05:52:55;101500.41;;;6.23;54.07
76060;BME280;64759;52.220;5.170;2023-04-06T05:55:24;101499.78;;;6.19;53.73
76060;BME280;64759;52.220;5.170;2023-04-06T05:58:02;101504.44;;;6.27;53.12
76060;BME280;64759;52.220;5.170;2023-04-06T06:00:27;101502.81;;;6.26;53.73
76060;BME280;64759;52.220;5.170;2023-04-06T06:03:01;101499.63;;;6.35;53.28
76060;BME280;64759;52.220;5.170;2023-04-06T06:05:30;101505.63;;;6.35;53.48
76060;BME280;64759;52.220;5.170;2023-04-06T06:07:59;101505.13;;;6.43;53.68
76060;BME280;64759;52.220;5.170;2023-04-06T06:10:28;101508.28;;;6.34;53.69
76060;BME280;64759;52.220;5.170;2023-04-06T06:12:54;101506.19;;;6.53;53.27
76060;BME280;64759;52.220;5.170;2023-04-06T06:15:20;101506.19;;;6.53;53.25
76060;BME280;64759;52.220;5.170;2023-04-06T06:17:47;101504.19;;;6.71;53.07
76060;BME280;64759;52.220;5.170;2023-04-06T06:20:13;101498.72;;;6.75;53.44
76060;BME280;64759;52.220;5.170;2023-04-06T06:22:38;101502.03;;;6.77;53.24
76060;BME280;64759;52.220;5.170;2023-04-06T06:25:08;101499.66;;;6.87;52.72
76060;BME280;64759;52.220;5.170;2023-04-06T06:27:34;101499.69;;;6.99;52.77
76060;BME280;64759;52.220;5.170;2023-04-06T06:30:00;101497.41;;;7.20;52.24
76060;BME280;64759;52.220;5.170;2023-04-06T06:32:29;101492.88;;;7.23;52.04
76060;BME280;64759;52.220;5.170;2023-04-06T06:34:55;101495.97;;;7.29;51.60
76060;BME280;64759;52.220;5.170;2023-04-06T06:37:20;101496.41;;;7.10;51.88
76060;BME280;64759;52.220;5.170;2023-04-06T06:39:47;101501.63;;;7.21;52.32
76060;BME280;64759;52.220;5.170;2023-04-06T06:42:12;101504.63;;;7.15;52.41
76060;BME280;64759;52.220;5.170;2023-04-06T06:44:51;101506.69;;;7.35;52.34
76060;BME280;64759;52.220;5.170;2023-04-06T06:47:16;101505.31;;;7.42;52.13
76060;BME280;64759;52.220;5.170;2023-04-06T06:49:43;101500.06;;;7.56;51.64
76060;BME280;64759;52.220;5.170;2023-04-06T06:52:08;101495.34;;;7.38;51.82
76060;BME280;64759;52.220;5.170;2023-04-06T06:54:34;101501.94;;;7.42;52.46
76060;BME280;64759;52.220;5.170;2023-04-06T06:56:59;101499.06;;;7.46;52.31
76060;BME280;64759;52.220;5.170;2023-04-06T06:59:26;101494.81;;;7.45;52.12
76060;BME280;64759;52.220;5.170;2023-04-06T07:01:52;101495.53;;;7.35;52.91
76060;BME280;64759;52.220;5.170;2023-04-06T07:04:18;101489.78;;;7.31;52.71
76060;BME280;64759;52.220;5.170;2023-04-06T07:06:44;101485.66;;;7.16;53.37
76060;BME280;64759;52.220;5.170;2023-04-06T07:09:11;101484.13;;;7.26;53.36
76060;BME280;64759;52.220;5.170;2023-04-06T07:11:36;101483.81;;;7.43;53.08
76060;BME280;64759;52.220;5.170;2023-04-06T07:14:02;101483.81;;;7.43;53.35
76060;BME280;64759;52.220;5.170;2023-04-06T07:16:27;101483.47;;;7.48;53.13
76060;BME280;64759;52.220;5.170;2023-04-06T07:18:53;101492.56;;;7.53;53.07
76060;BME280;64759;52.220;5.170;2023-04-06T07:21:19;101484.81;;;7.53;53.13
76060;BME280;64759;52.220;5.170;2023-04-06T07:23:44;101477.91;;;7.66;53.04
76060;BME280;64759;52.220;5.170;2023-04-06T07:26:10;101479.22;;;7.59;53.09
76060;BME280;64759;52.220;5.170;2023-04-06T07:28:36;101477.59;;;7.58;53.42
76060;BME280;64759;52.220;5.170;2023-04-06T07:31:02;101478.59;;;7.68;53.15
76060;BME280;64759;52.220;5.170;2023-04-06T07:33:28;101481.34;;;7.42;53.86
76060;BME280;64759;52.220;5.170;2023-04-06T07:35:56;101475.09;;;7.57;53.74
76060;BME280;64759;52.220;5.170;2023-04-06T07:38:23;101478.41;;;7.71;53.65
76060;BME280;64759;52.220;5.170;2023-04-06T07:40:50;101479.53;;;7.67;53.91
76060;BME280;64759;52.220;5.170;2023-04-06T07:43:16;101482.78;;;7.82;53.65
76060;BME280;64759;52.220;5.170;2023-04-06T07:45:42;101478.75;;;7.90;53.93
76060;BME280;64759;52.220;5.170;2023-04-06T07:48:08;101473.09;;;8.09;53.44
76060;BME280;64759;52.220;5.170;2023-04-06T07:50:33;101484.91;;;8.01;53.65
76060;BME280;64759;52.220;5.170;2023-04-06T07:52:59;101475.75;;;7.84;54.02
76060;BME280;64759;52.220;5.170;2023-04-06T07:55:26;101469.75;;;7.96;54.06
76060;BME280;64759;52.220;5.170;2023-04-06T07:57:51;101475.34;;;7.90;54.36
76060;BME280;64759;52.220;5.170;2023-04-06T08:00:17;101475.25;;;8.15;53.96
76060;BME280;64759;52.220;5.170;2023-04-06T08:02:42;101473.81;;;8.11;54.00
76060;BME280;64759;52.220;5.170;2023-04-06T08:05:08;101476.56;;;8.21;53.94
76060;BME280;64759;52.220;5.170;2023-04-06T08:07:34;101479.88;;;8.23;54.00
76060;BME280;64759;52.220;5.170;2023-04-06T08:10:01;101479.25;;;8.43;53.97
76060;BME280;64759;52.220;5.170;2023-04-06T08:12:26;101472.25;;;8.45;54.04
76060;BME280;64759;52.220;5.170;2023-04-06T08:14:51;101484.06;;;8.36;53.99
76060;BME280;64759;52.220;5.170;2023-04-06T08:17:17;101467.53;;;8.39;53.66
76060;BME280;64759;52.220;5.170;2023-04-06T08:19:44;101466.59;;;8.40;54.23
76060;BME280;64759;52.220;5.170;2023-04-06T08:22:11;101467.59;;;8.61;53.58
76060;BME280;64759;52.220;5.170;2023-04-06T08:24:37;101469.97;;;8.75;53.39
76060;BME280;64759;52.220;5.170;2023-04-06T08:27:02;101471.59;;;8.65;53.60
76060;BME280;64759;52.220;5.170;2023-04-06T08:29:28;101465.38;;;8.68;53.97
76060;BME280;64759;52.220;5.170;2023-04-06T08:31:53;101467.66;;;8.72;53.95
76060;BME280;64759;52.220;5.170;2023-04-06T08:34:19;101472.13;;;8.81;54.25
76060;BME280;64759;52.220;5.170;2023-04-06T08:36:44;101465.44;;;8.90;53.68
76060;BME280;64759;52.220;5.170;2023-04-06T08:39:11;101466.53;;;9.20;53.06
76060;BME280;64759;52.220;5.170;2023-04-06T08:41:36;101458.31;;;9.38;52.91
76060;BME280;64759;52.220;5.170;2023-04-06T08:44:02;101453.03;;;9.50;52.79
76060;BME280;64759;52.220;5.170;2023-04-06T08:46:31;101453.78;;;9.73;52.90
76060;BME280;64759;52.220;5.170;2023-04-06T08:48:58;101459.28;;;10.02;52.37
76060;BME280;64759;52.220;5.170;2023-04-06T08:51:24;101456.88;;;10.21;52.45
76060;BME280;64759;52.220;5.170;2023-04-06T08:53:52;101454.56;;;9.96;52.49
76060;BME280;64759;52.220;5.170;2023-04-06T08:56:24;101462.47;;;9.94;53.12
76060;BME280;64759;52.220;5.170;2023-04-06T08:58:50;101461.41;;;9.85;53.62
76060;BME280;64759;52.220;5.170;2023-04-06T09:01:21;101460.47;;;9.86;54.37
76060;BME280;64759;52.220;5.170;2023-04-06T09:03:48;101466.78;;;10.16;53.82
76060;BME280;64759;52.220;5.170;2023-04-06T09:06:14;101474.28;;;10.08;54.09
76060;BME280;64759;52.220;5.170;2023-04-06T09:08:41;101470.56;;;10.01;53.85
76060;BME280;64759;52.220;5.170;2023-04-06T09:11:10;101475.41;;;9.94;53.80
76060;BME280;64759;52.220;5.170;2023-04-06T09:16:11;101484.50;;;9.55;55.47
76060;BME280;64759;52.220;5.170;2023-04-06T09:18:37;101474.16;;;9.44;56.18
76060;BME280;64759;52.220;5.170;2023-04-06T09:21:04;101487.69;;;9.48;55.95
76060;BME280;64759;52.220;5.170;2023-04-06T09:23:32;101478.38;;;9.56;56.19
76060;BME280;64759;52.220;5.170;2023-04-06T09:26:15;101481.22;;;9.64;56.27
76060;BME280;64759;52.220;5.170;2023-04-06T09:28:52;101478.16;;;9.70;56.97
76060;BME280;64759;52.220;5.170;2023-04-06T09:31:26;101478.97;;;9.71;57.66
76060;BME280;64759;52.220;5.170;2023-04-06T09:33:52;101479.28;;;9.88;57.29
76060;BME280;64759;52.220;5.170;2023-04-06T09:36:19;101479.41;;;9.76;58.60
76060;BME280;64759;52.220;5.170;2023-04-06T09:38:56;101492.13;;;9.79;58.93
76060;BME280;64759;52.220;5.170;2023-04-06T09:41:27;101479.44;;;9.65;60.27
76060;BME280;64759;52.220;5.170;2023-04-06T09:46:39;101487.66;;;9.59;61.99
76060;BME280;64759;52.220;5.170;2023-04-06T09:49:07;101482.28;;;9.51;64.00
76060;BME280;64759;52.220;5.170;2023-04-06T09:51:57;101488.22;;;9.07;65.68
76060;BME280;64759;52.220;5.170;2023-04-06T09:54:28;101485.72;;;8.83;66.48
76060;BME280;64759;52.220;5.170;2023-04-06T10:00:00;101473.34;;;9.10;66.03
76060;BME280;64759;52.220;5.170;2023-04-06T10:05:06;101481.00;;;9.45;64.63
76060;BME280;64759;52.220;5.170;2023-04-06T10:07:33;101483.44;;;9.47;63.48
76060;BME280;64759;52.220;5.170;2023-04-06T10:10:00;101481.81;;;9.46;64.35
76060;BME280;64759;52.220;5.170;2023-04-06T10:12:27;101481.47;;;9.28;64.28
76060;BME280;64759;52.220;5.170;2023-04-06T10:14:53;101486.50;;;9.30;65.05
76060;BME280;64759;52.220;5.170;2023-04-06T10:17:19;101485.09;;;9.37;65.49
76060;BME280;64759;52.220;5.170;2023-04-06T10:19:49;101481.81;;;9.24;66.40
76060;BME280;64759;52.220;5.170;2023-04-06T10:22:35;101492.69;;;9.05;67.36
76060;BME280;64759;52.220;5.170;2023-04-06T10:25:01;101470.53;;;9.13;69.00
76060;BME280;64759;52.220;5.170;2023-04-06T10:27:28;101473.81;;;9.15;69.09
76060;BME280;64759;52.220;5.170;2023-04-06T10:30:01;101470.84;;;8.87;70.74
76060;BME280;64759;52.220;5.170;2023-04-06T10:32:37;101477.19;;;8.94;71.48
76060;BME280;64759;52.220;5.170;2023-04-06T10:35:09;101473.31;;;8.88;71.29
76060;BME280;64759;52.220;5.170;2023-04-06T10:37:52;101474.84;;;9.02;71.37
76060;BME280;64759;52.220;5.170;2023-04-06T10:40:25;101466.03;;;9.04;71.73
76060;BME280;64759;52.220;5.170;2023-04-06T10:42:55;101470.03;;;8.97;70.83
76060;BME280;64759;52.220;5.170;2023-04-06T10:47:47;101469.94;;;8.99;73.83
76060;BME280;64759;52.220;5.170;2023-04-06T10:50:14;101467.00;;;9.03;73.60
76060;BME280;64759;52.220;5.170;2023-04-06T10:52:41;101457.22;;;9.07;73.05
76060;BME280;64759;52.220;5.170;2023-04-06T10:55:08;101469.53;;;8.92;74.98
76060;BME280;64759;52.220;5.170;2023-04-06T10:57:35;101461.38;;;8.52;76.08
76060;BME280;64759;52.220;5.170;2023-04-06T11:00:07;101454.84;;;8.71;75.72
76060;BME280;64759;52.220;5.170;2023-04-06T11:02:34;101447.16;;;8.47;76.50
76060;BME280;64759;52.220;5.170;2023-04-06T11:05:00;101458.19;;;8.49;78.60
76060;BME280;64759;52.220;5.170;2023-04-06T11:07:26;101448.34;;;8.54;77.50
76060;BME280;64759;52.220;5.170;2023-04-06T11:09:53;101436.34;;;8.53;78.93
76060;BME280;64759;52.220;5.170;2023-04-06T11:12:26;101434.75;;;8.63;78.56
76060;BME280;64759;52.220;5.170;2023-04-06T11:14:59;101434.09;;;8.83;78.04
76060;BME280;64759;52.220;5.170;2023-04-06T11:17:33;101433.97;;;8.85;78.39
76060;BME280;64759;52.220;5.170;2023-04-06T11:19:59;101429.28;;;8.79;79.35
76060;BME280;64759;52.220;5.170;2023-04-06T11:22:26;101429.19;;;8.91;79.19
76060;BME280;64759;52.220;5.170;2023-04-06T11:24:52;101431.41;;;8.96;79.00
76060;BME280;64759;52.220;5.170;2023-04-06T11:27:18;101435.63;;;8.97;79.89
76060;BME280;64759;52.220;5.170;2023-04-06T11:29:44;101424.00;;;8.91;78.31
76060;BME280;64759;52.220;5.170;2023-04-06T11:32:20;101426.94;;;8.87;79.17
76060;BME280;64759;52.220;5.170;2023-04-06T11:34:47;101426.41;;;8.60;80.16
76060;BME280;64759;52.220;5.170;2023-04-06T11:37:13;101421.25;;;8.60;80.37
76060;BME280;64759;52.220;5.170;2023-04-06T11:39:49;101418.28;;;8.53;81.22
76060;BME280;64759;52.220;5.170;2023-04-06T11:42:28;101419.81;;;8.44;80.49
76060;BME280;64759;52.220;5.170;2023-04-06T11:44:58;101418.78;;;8.58;80.69
76060;BME280;64759;52.220;5.170;2023-04-06T11:47:36;101419.25;;;8.52;81.13
76060;BME280;64759;52.220;5.170;2023-04-06T11:50:10;101409.69;;;8.41;80.54
76060;BME280;64759;52.220;5.170;2023-04-06T11:52:36;101408.22;;;8.61;81.85
76060;BME280;64759;52.220;5.170;2023-04-06T11:55:18;101409.28;;;8.59;82.51
76060;BME280;64759;52.220;5.170;2023-04-06T11:57:44;101400.53;;;8.72;81.72
76060;BME280;64759;52.220;5.170;2023-04-06T12:00:10;101396.38;;;8.59;82.00
76060;BME280;64759;52.220;5.170;2023-04-06T12:02:39;101399.44;;;8.52;81.89
76060;BME280;64759;52.220;5.170;2023-04-06T12:05:05;101397.41;;;8.45;82.49
76060;BME280;64759;52.220;5.170;2023-04-06T12:07:32;101399.94;;;8.34;82.88
76060;BME280;64759;52.220;5.170;2023-04-06T12:09:58;101395.75;;;8.44;83.94
76060;BME280;64759;52.220;5.170;2023-04-06T12:12:24;101399.16;;;8.44;83.93
76060;BME280;64759;52.220;5.170;2023-04-06T12:14:50;101390.50;;;8.57;83.48
76060;BME280;64759;52.220;5.170;2023-04-06T12:17:16;101392.25;;;8.56;83.96
76060;BME280;64759;52.220;5.170;2023-04-06T12:19:41;101400.69;;;8.47;84.91
76060;BME280;64759;52.220;5.170;2023-04-06T12:22:06;101392.00;;;8.13;84.94
76060;BME280;64759;52.220;5.170;2023-04-06T12:24:33;101392.53;;;8.29;85.00
76060;BME280;64759;52.220;5.170;2023-04-06T12:26:58;101390.47;;;8.11;86.45
76060;BME280;64759;52.220;5.170;2023-04-06T12:29:24;101381.22;;;8.19;86.56
76060;BME280;64759;52.220;5.170;2023-04-06T12:31:50;101395.50;;;8.12;86.33
76060;BME280;64759;52.220;5.170;2023-04-06T12:34:16;101387.06;;;8.10;85.70
76060;BME280;64759;52.220;5.170;2023-04-06T12:36:41;101391.59;;;8.07;86.59
76060;BME280;64759;52.220;5.170;2023-04-06T12:39:08;101382.16;;;8.18;87.13
76060;BME280;64759;52.220;5.170;2023-04-06T12:41:33;101383.38;;;8.02;86.88
76060;BME280;64759;52.220;5.170;2023-04-06T12:44:00;101386.72;;;8.15;87.71
76060;BME280;64759;52.220;5.170;2023-04-06T12:46:26;101380.03;;;8.12;87.70
76060;BME280;64759;52.220;5.170;2023-04-06T12:48:52;101379.75;;;8.04;86.57
76060;BME280;64759;52.220;5.170;2023-04-06T12:51:21;101381.47;;;7.93;87.62
76060;BME280;64759;52.220;5.170;2023-04-06T12:53:47;101372.81;;;7.94;87.27
76060;BME280;64759;52.220;5.170;2023-04-06T12:56:14;101395.47;;;7.77;88.86
76060;BME280;64759;52.220;5.170;2023-04-06T12:58:40;101367.09;;;7.77;89.78
76060;BME280;64759;52.220;5.170;2023-04-06T13:01:07;101368.63;;;7.80;90.04
76060;BME280;64759;52.220;5.170;2023-04-06T13:03:34;101373.19;;;7.76;89.23
76060;BME280;64759;52.220;5.170;2023-04-06T13:06:00;101363.16;;;7.84;89.69
76060;BME280;64759;52.220;5.170;2023-04-06T13:08:26;101371.03;;;7.94;90.18
76060;BME280;64759;52.220;5.170;2023-04-06T13:10:53;101362.38;;;7.95;90.40
76060;BME280;64759;52.220;5.170;2023-04-06T13:13:26;101359.66;;;7.85;90.03
76060;BME280;64759;52.220;5.170;2023-04-06T13:15:53;101363.84;;;7.86;90.87
76060;BME280;64759;52.220;5.170;2023-04-06T13:18:20;101358.53;;;7.77;90.74